sensor_id;sensor_type;location;lat;lon;timestamp;pressure;altitude;pressure_sealevel;temperature;humidity
22862;BME280;11598;50.652;6.172;2023-03-20T00:04:37;96770.38;;;5.50;100.00
22862;BME280;11598;50.652;6.172;2023-03-20T00:14:38;96779.00;;;5.49;100.00
22862;BME280;11598;50.652;6.172;2023-03-20T00:24:39;96779.09;;;5.48;100.00
22862;BME280;11598;50.652;6.172;2023-03-20T00:34:39;96798.09;;;5.45;100.00
22862;BME280;11598;50.652;6.172;2023-03-20T00:44:53;96806.91;;;5.41;100.00
22862;BME280;11598;50.652;6.172;2023-03-20T00:54:55;96814.53;;;5.43;100.00
22862;BME280;11598;50.652;6.172;2023-03-20T01:04:56;96803.41;;;5.42;100.00
22862;BME280;11598;50.652;6.172;2023-03-20T01:14:57;96796.66;;;5.40;100.00
22862;BME280;11598;50.652;6.172;2023-03-20T01:24:57;96776.19;;;5.37;100.00
22862;BME280;11598;50.652;6.172;2023-03-20T01:34:58;96748.84;;;5.34;100.00
22862;BME280;11598;50.652;6.172;2023-03-20T01:44:58;96736.72;;;5.36;100.00
22862;BME280;11598;50.652;6.172;2023-03-20T01:54:58;96726.56;;;5.33;100.00
22862;BME280;11598;50.652;6.172;2023-03-20T02:05:03;96753.97;;;5.17;100.00
22862;BME280;11598;50.652;6.172;2023-03-20T02:15:06;96763.47;;;4.97;100.00
22862;BME280;11598;50.652;6.172;2023-03-20T03:06:30;96708.19;;;4.87;100.00
22862;BME280;11598;50.652;6.172;2023-03-20T03:16:34;96745.00;;;4.51;100.00
22862;BME280;11598;50.652;6.172;2023-03-20T03:26:38;96756.06;;;4.15;100.00
22862;BME280;11598;50.652;6.172;2023-03-20T03:46:57;96782.94;;;3.88;100.00
22862;BME280;11598;50.652;6.172;2023-03-20T03:57:00;96762.19;;;3.92;100.00
22862;BME280;11598;50.652;6.172;2023-03-20T04:07:02;96751.41;;;3.84;100.00
22862;BME280;11598;50.652;6.172;2023-03-20T04:17:02;96762.09;;;3.75;100.00
22862;BME280;11598;50.652;6.172;2023-03-20T04:27:02;96745.19;;;3.69;100.00
22862;BME280;11598;50.652;6.172;2023-03-20T04:37:03;96723.41;;;3.78;100.00
22862;BME280;11598;50.652;6.172;2023-03-20T04:47:06;96731.94;;;3.78;100.00
22862;BME280;11598;50.652;6.172;2023-03-20T04:57:07;96734.97;;;3.68;100.00
22862;BME280;11598;50.652;6.172;2023-03-20T05:07:07;96743.75;;;3.62;100.00
22862;BME280;11598;50.652;6.172;2023-03-20T05:17:07;96739.72;;;3.56;100.00
22862;BME280;11598;50.652;6.172;2023-03-20T05:27:08;96742.47;;;3.52;100.00
22862;BME280;11598;50.652;6.172;2023-03-20T05:37:08;96742.69;;;3.47;100.00
22862;BME280;11598;50.652;6.172;2023-03-20T05:47:09;96729.19;;;3.42;100.00
22862;BME280;11598;50.652;6.172;2023-03-20T05:57:09;96730.94;;;3.42;100.00
22862;BME280;11598;50.652;6.172;2023-03-20T06:07:11;96745.56;;;3.39;100.00
22862;BME280;11598;50.652;6.172;2023-03-20T06:17:11;96741.44;;;3.35;100.00
22862;BME280;11598;50.652;6.172;2023-03-20T06:27:12;96733.19;;;3.49;100.00
22862;BME280;11598;50.652;6.172;2023-03-20T06:37:12;96731.44;;;3.70;100.00
22862;BME280;11598;50.652;6.172;2023-03-20T06:47:13;96722.94;;;3.89;100.00
22862;BME280;11598;50.652;6.172;2023-03-20T06:57:13;96746.31;;;4.22;100.00
22862;BME280;11598;50.652;6.172;2023-03-20T07:07:13;96761.34;;;4.31;100.00
22862;BME280;11598;50.652;6.172;2023-03-20T07:17:14;96779.94;;;4.38;100.00
22862;BME280;11598;50.652;6.172;2023-03-20T07:27:14;96774.16;;;4.52;100.00
22862;BME280;11598;50.652;6.172;2023-03-20T07:37:15;96789.88;;;4.83;100.00
22862;BME280;11598;50.652;6.172;2023-03-20T07:47:18;96798.28;;;5.06;100.00
22862;BME280;11598;50.652;6.172;2023-03-20T07:57:18;96781.41;;;5.18;100.00
22862;BME280;11598;50.652;6.172;2023-03-20T08:07:19;96802.19;;;5.32;100.00
22862;BME280;11598;50.652;6.172;2023-03-20T08:17:19;96802.50;;;5.43;100.00
22862;BME280;11598;50.652;6.172;2023-03-20T08:27:20;96808.41;;;5.45;100.00
22862;BME280;11598;50.652;6.172;2023-03-20T08:37:21;96813.50;;;5.64;98.11
22862;BME280;11598;50.652;6.172;2023-03-20T08:47:22;96809.81;;;6.05;96.48
22862;BME280;11598;50.652;6.172;2023-03-20T08:57:22;96816.63;;;6.23;93.68
22862;BME280;11598;50.652;6.172;2023-03-20T09:07:22;96824.19;;;6.26;91.75
22862;BME280;11598;50.652;6.172;2023-03-20T09:17:23;96838.22;;;6.38;90.09
22862;BME280;11598;50.652;6.172;2023-03-20T09:27:23;96841.84;;;6.51;88.13
22862;BME280;11598;50.652;6.172;2023-03-20T09:37:24;96846.16;;;6.51;85.85
22862;BME280;11598;50.652;6.172;2023-03-20T09:47:39;96845.25;;;6.19;86.35
22862;BME280;11598;50.652;6.172;2023-03-20T09:57:47;96839.38;;;6.15;87.18
22862;BME280;11598;50.652;6.172;2023-03-20T10:07:49;96840.44;;;6.28;85.75
22862;BME280;11598;50.652;6.172;2023-03-20T10:18:01;96842.38;;;6.41;84.01
22862;BME280;11598;50.652;6.172;2023-03-20T10:28:20;96849.59;;;6.51;82.60
22862;BME280;11598;50.652;6.172;2023-03-20T10:38:41;96848.44;;;6.40;81.71
22862;BME280;11598;50.652;6.172;2023-03-20T10:48:49;96844.53;;;6.15;81.55
22862;BME280;11598;50.652;6.172;2023-03-20T10:59:00;96847.66;;;6.04;82.51
22862;BME280;11598;50.652;6.172;2023-03-20T11:09:18;96836.38;;;6.07;83.35
22862;BME280;11598;50.652;6.172;2023-03-20T11:19:21;96835.16;;;6.14;84.90
22862;BME280;11598;50.652;6.172;2023-03-20T11:29:29;96835.16;;;6.14;87.41
22862;BME280;11598;50.652;6.172;2023-03-20T11:39:34;96816.84;;;6.01;90.42
22862;BME280;11598;50.652;6.172;2023-03-20T11:59:56;96792.31;;;5.92;95.28
22862;BME280;11598;50.652;6.172;2023-03-20T12:10:00;96767.91;;;6.17;96.60
22862;BME280;11598;50.652;6.172;2023-03-20T12:20:21;96750.88;;;6.46;96.94
22862;BME280;11598;50.652;6.172;2023-03-20T12:30:32;96730.75;;;6.85;95.17
22862;BME280;11598;50.652;6.172;2023-03-20T12:40:42;96723.97;;;7.44;94.23
22862;BME280;11598;50.652;6.172;2023-03-20T13:11:24;96691.69;;;8.09;85.29
22862;BME280;11598;50.652;6.172;2023-03-20T13:21:32;96706.22;;;8.11;83.26
22862;BME280;11598;50.652;6.172;2023-03-20T13:41:34;96710.75;;;8.22;81.72
22862;BME280;11598;50.652;6.172;2023-03-20T13:51:42;96723.03;;;8.33;80.71
22862;BME280;11598;50.652;6.172;2023-03-20T14:11:52;96712.97;;;8.28;78.85
22862;BME280;11598;50.652;6.172;2023-03-20T14:21:54;96698.25;;;8.29;79.06
22862;BME280;11598;50.652;6.172;2023-03-20T14:32:20;96695.16;;;8.09;78.46
22862;BME280;11598;50.652;6.172;2023-03-20T15:03:04;96671.75;;;7.82;77.40
22862;BME280;11598;50.652;6.172;2023-03-20T15:13:06;96663.53;;;7.75;77.22
22862;BME280;11598;50.652;6.172;2023-03-20T15:23:07;96651.44;;;7.90;76.09
22862;BME280;11598;50.652;6.172;2023-03-20T15:33:15;96647.28;;;8.02;77.14
22862;BME280;11598;50.652;6.172;2023-03-20T15:43:20;96643.19;;;8.12;76.08
22862;BME280;11598;50.652;6.172;2023-03-20T15:53:28;96635.53;;;7.96;75.59
22862;BME280;11598;50.652;6.172;2023-03-20T16:03:30;96632.13;;;7.81;75.66
22862;BME280;11598;50.652;6.172;2023-03-20T16:13:50;96635.63;;;7.66;75.75
22862;BME280;11598;50.652;6.172;2023-03-20T16:23:54;96639.69;;;7.56;75.99
22862;BME280;11598;50.652;6.172;2023-03-20T16:33:59;96624.91;;;7.44;76.42
22862;BME280;11598;50.652;6.172;2023-03-20T16:44:10;96625.59;;;7.31;76.02
22862;BME280;11598;50.652;6.172;2023-03-20T16:54:18;96635.56;;;7.23;76.89
22862;BME280;11598;50.652;6.172;2023-03-20T17:04:22;96634.28;;;7.16;77.14
22862;BME280;11598;50.652;6.172;2023-03-20T17:14:23;96642.84;;;7.16;77.28
22862;BME280;11598;50.652;6.172;2023-03-20T17:24:23;96647.19;;;7.16;78.47
22862;BME280;11598;50.652;6.172;2023-03-20T17:34:24;96650.31;;;7.07;79.14
22862;BME280;11598;50.652;6.172;2023-03-20T17:44:24;96648.56;;;6.91;80.15
22862;BME280;11598;50.652;6.172;2023-03-20T17:54:24;96654.63;;;6.76;82.01
22862;BME280;11598;50.652;6.172;2023-03-20T18:04:25;96654.88;;;6.55;83.78
22862;BME280;11598;50.652;6.172;2023-03-20T18:14:26;96661.22;;;6.34;86.34
22862;BME280;11598;50.652;6.172;2023-03-20T18:24:26;96642.16;;;6.21;88.09
22862;BME280;11598;50.652;6.172;2023-03-20T18:34:26;96656.16;;;6.17;89.01
22862;BME280;11598;50.652;6.172;2023-03-20T18:44:27;96661.22;;;6.18;89.77
22862;BME280;11598;50.652;6.172;2023-03-20T18:54:27;96650.81;;;6.20;90.26
22862;BME280;11598;50.652;6.172;2023-03-20T19:04:27;96643.84;;;6.22;90.23
22862;BME280;11598;50.652;6.172;2023-03-20T19:14:28;96654.16;;;6.22;90.29
22862;BME280;11598;50.652;6.172;2023-03-20T19:24:28;96646.25;;;6.25;90.55
22862;BME280;11598;50.652;6.172;2023-03-20T19:34:28;96644.22;;;6.30;90.59
22862;BME280;11598;50.652;6.172;2023-03-20T19:44:29;96646.81;;;6.30;90.41
22862;BME280;11598;50.652;6.172;2023-03-20T19:54:29;96644.91;;;6.33;90.23
22862;BME280;11598;50.652;6.172;2023-03-20T20:04:30;96648.31;;;6.34;89.91
22862;BME280;11598;50.652;6.172;2023-03-20T20:14:30;96638.19;;;6.31;89.55
22862;BME280;11598;50.652;6.172;2023-03-20T20:24:31;96629.69;;;6.29;89.27
22862;BME280;11598;50.652;6.172;2023-03-20T20:34:32;96629.09;;;6.24;89.38
22862;BME280;11598;50.652;6.172;2023-03-20T20:44:32;96628.53;;;6.19;89.24
22862;BME280;11598;50.652;6.172;2023-03-20T20:54:33;96624.94;;;6.21;89.49
22862;BME280;11598;50.652;6.172;2023-03-20T21:04:34;96629.75;;;6.27;89.51
22862;BME280;11598;50.652;6.172;2023-03-20T21:14:35;96622.59;;;6.32;89.89
22862;BME280;11598;50.652;6.172;2023-03-20T21:24:36;96617.19;;;6.37;90.01
22862;BME280;11598;50.652;6.172;2023-03-20T21:34:37;96623.78;;;6.43;90.45
22862;BME280;11598;50.652;6.172;2023-03-20T21:44:38;96612.44;;;6.45;91.08
22862;BME280;11598;50.652;6.172;2023-03-20T21:54:38;96620.00;;;6.48;91.63
22862;BME280;11598;50.652;6.172;2023-03-20T22:04:38;96619.75;;;6.53;92.07
22862;BME280;11598;50.652;6.172;2023-03-20T22:14:39;96619.25;;;6.62;92.38
22862;BME280;11598;50.652;6.172;2023-03-20T22:24:40;96624.91;;;6.69;91.89
22862;BME280;11598;50.652;6.172;2023-03-20T22:34:40;96624.63;;;6.73;91.77
22862;BME280;11598;50.652;6.172;2023-03-20T22:44:41;96614.50;;;6.70;92.05
22862;BME280;11598;50.652;6.172;2023-03-20T22:54:41;96616.22;;;6.70;92.21
22862;BME280;11598;50.652;6.172;2023-03-20T23:04:41;96614.13;;;6.76;92.39
22862;BME280;11598;50.652;6.172;2023-03-20T23:14:42;96600.22;;;6.79;92.59
22862;BME280;11598;50.652;6.172;2023-03-20T23:24:42;96597.47;;;6.82;92.47
22862;BME280;11598;50.652;6.172;2023-03-20T23:34:43;96597.28;;;6.85;92.46
22862;BME280;11598;50.652;6.172;2023-03-20T23:44:43;96599.69;;;6.88;92.41
22862;BME280;11598;50.652;6.172;2023-03-20T23:54:44;96584.88;;;6.92;92.36
